Portada
METAR-TAF:

METAR-TAF

Aeropuertos :

Kimberley, Sudáfrica

latitud: 28-48S, longitud: 024-46E, altitud: 1198 m

Observación

El informe se hizo hace 19 minutos, a las 15:00 UTC
Viento 1 kt del oeste
Temperatura 30°C
Humedad 46%
Presión 1018 hPa
Visibilidad 10 km o más
sin nubes por debajo de 1500 m y sin presencia de cumulonimbus.

METAR: FAKM 251500Z 26001KT CAVOK 30/17 Q1018

Hora: 17:19 (15:19 UTC)

Pronóstico

El informe se hizo hace 6 horas y 19 minutos, a las 09:00 UTC
Pronóstico válido del 25 a las 10 UTC al 25 a las 18 UTC
Viento 3 kt con dirección variable
Visibilidad 10 km o más
sin nubes por debajo de 1500 m y sin presencia de cumulonimbus.

TAF: FAKM 250900Z 2510/2518 VRB03KT CAVOK TX30/2513Z TN19/2518Z

Observaciones y pronósticos meteorológicos de más de 4000 aeropuertos (mensajes METAR y TAF).

Los puntos amarillos y rojos representan las estaciones disponibles.

Ponga el ratón en el punto deseado para ver el nombre de la estación.

Haga clic para ver las observaciones y los pronósticos meteorológicos.

Para cambiar el mapa : haga clic en los botones verdes con una cruz de color negro para hacer un zoom, en el botón verde con un guión para alejar o en las flechas verdes para mapas adyacentes.


METAR-TAF: